الصفحة الرئيسية
METAR-TAF:

METAR-TAF

مطار :

Akron, كولورادو, الولايات المتحدة

دائرة عرض: 40-10-28N, خط طول: 103-12-52W, ارتفاع: 1431 متر

مراقبة الطقس الحالي

تاريخ ووقت الإصدار 31 دقيقة قبل الساعة 01:53UTC
ريح 7 عقدة من الشرق/الجنوب الشرقي
درجة الحرارة 23°درجة مئوية
الرطوبة 41%
ضغط 1014 hPa
الرؤية: 16.1 كم
سماء صافية

METAR: KAKO 260153Z AUTO 12007KT 10SM CLR 23/09 A2995 RMK AO2 SLP086 T02330094

زمن: 20:24 (02:24 UTC)


TAF: مفقودة

أرصاد الطقس والتوقعات من أكثر من 4000 مطار (تقارير الطقس للمطار METAR والتنبؤ بالطقس بالمطارTAF).

المحطات المتاحة هي النقط الصفراء والحمراء على الخريطة.

حرك المؤشر فوق النقطة لمعرفة اسم المحطة.

ثم انقر لمعرفة أرصاد وتوقعات الطقس.

لتغيير الخارطة: اضغط على الأزرار الخضراء مع رمز الصليب الأسود للتكبير. على الزر الأخضر مع شرطة للتصغير، أو على الأسهم الخضراء للخرائط المجاورة.


METAR-TAF: